Nationale Nord-Ouest Sille-le-Guillaume (72) - K

Date : 19/03/2017

Place Nom Licence Catégorie Club Temps CN à J-60 Points Différence Nouveau CN
1 BOUSSER Etienne 1843 H70 5702GE 0:34:02 6179 6251 +72 6179
2 PREVOST Pascale 922 D60 7707IF 0:41:41 4693 5104 +411 4876
3 TAILLANDIER Guy 1583 H70 0801GE 0:42:23 5370 5019 -351 5352
4 VANNIER Bernard 2119 H70 7703IF 0:43:22 4703 4906 +203 4848
5 CABON Herve 95 H70 2904BR 0:45:47 4511 4647 +136 4534
6 HUMBERTCLAUDE J-Paul 16205 H70 5909HF 0:48:17 4224 4406 +182 4298
7 SIMONET Jean 930 H75 7707IF 0:51:09 4142 4159 +17 4234
8 ANNE Brigitte 1672 D65 0111AR 0:51:28 4260 4133 -127 4234
9 CAMPBELL Jane 17406 D60 7807IF 0:51:50 3987 4104 +117 4047
10 HERVE-JOUSSE Odile 13784 D60 7808IF 0:53:33 3725 3973 +248 3725
11 EJSMONT Jean 5597 H70 6203HF 0:53:54 3947 3796
12 DEVILLE Nelly 2401 D65 5402GE 0:55:03 3832 3864 +32 3851
13 URVOAS Nadège 28383 D40 7807IF 0:57:41 3760 3688 -72 3868
14 DIEUDONNE Madeleine 1380 D70 7808IF 0:58:24 3320 3643 +323 3401
15 ARROQUI Anne-sophie 23424 D45 5909HF 0:58:53 3453 3613 +160 3551
16 LEGUEN Joseph 8138 H70 2208BR 0:59:53 3372 3553 +181 3466
17 LEFRANÇOIS Gérard 1938 H70 9502IF 1:00:00 3713 3546 -167 3688
18 CONIEL Anne 14884 D45 5604BR 1:00:24 3474 3522 +48 3554
19 THIEBAULT Monique 5033 D70 3318NA 1:01:02 3421 3486 +65 3480
20 ROBERT Christian 1086 H70 7004BF 1:01:11 4222 3477 -745 4243
21 CHALOPIN Catherine 3674 D65 2105BF 1:01:28 3951 3461 -490 3964
22 BOULET Karine 11567 D45 2209BR 1:02:22 3241 3411 +170 3305
23 AGUILLE Veronique 9904 D65 1403NM 1:03:09 2494 3369 +875 2937
24 ANGLADE Françoise 22255 D50 5604BR 1:03:26 3518 3354 -164 3533
25 BERTHOLOM Morgane 32505 D40 2904BR 1:03:52 651 3331 +2680 2500
26 BRUGNON Valerie 30065 D45 2904BR 1:04:24 2628 3303 +675 3169
27 RICHARD Nicole 14245 D65 0207HF 1:04:44 3713 3286 -427 3715
28 VILLAME Uli 22384 D50 7719IF 1:05:12 3492 3263 -229 3466
29 GROC Claire 6113 D55 9502IF 1:05:36 3002 3243 +241 3290
30 BAUDRY J-Claude 1693 H70 1705NA 1:07:20 3202 3159 -43 3258
31 LAMBERT Nadine 5607 D60 7203PL 1:07:50 3033 3136 +103 3206
32 THEVENON Catherine 29294 D65 1705NA 1:08:12 2613 3119 +506 2714
33 PIGER Albert 116 H80 4504CE 1:08:34 3288 3103 -185 3356
34 GUILLOU Florence 28132 D50 2904BR 1:08:37 3206 3100 -106 3183
35 CALANDOT Michelle 2927 D60 1403NM 1:08:50 2542 3091 +549 2831
36 DEPERSIN Isabelle 17899 D45 5907HF 1:09:29 2162 3062 +900 2427
37 DOMENICI J-Claude 1052 H75 1705NA 1:09:34 3023 3058 +35 3153
38 LECOYER Annick 2885 D65 0207HF 1:09:41 2988 3053 +65 2993
39 SENCE Marie-Pierre 29897 D40 5906HF 1:11:27 3015 2977 -38 3051
40 CABON Monique 96 D65 2904BR 1:11:49 2725 2962 +237 2781
41 BAUD Sandrine 27612 D40 6203HF 1:13:23 2874 2899 +25 2934
42 DESHAYES Jacqueline 13582 D60 4504CE 1:13:25 1564 2898 +1334 2544
43 COLLETER J-Claude 1264 H75 8607NA 1:14:46 2431 2845 +414 2647
44 TESSIER Ariane 2004 D60 7709IF 1:14:48 2745 2844 +99 2758
45 TORZ-DRUON Magali 10081 D65 5906HF 1:15:44 2197 2809 +612 2684
46 MOULIERE M-Bernadette 2888 D70 0207HF 1:15:44 2976 2809 -167 2986
47 DUBOIS Sylvie 14002 D60 7709IF 1:16:38 2421 2776 +355 2633
48 CROCHET Gerard 2817 H75 1705NA 1:17:12 2724 2756 +32 2772
49 FRANTZ Francoise 6886 D70 2904BR 1:18:05 2851 2724 -127 2852
50 SERRE Francine 3429 D50 5907HF 1:18:44 2945 2702 -243 2958
51 HARDEL Elisabeth 8998 D65 1403NM 1:22:06 2308 2591 +283 2441
52 DENIS Martine 12377 D70 9404IF 1:23:04 2550 2561 +11 2577
53 POUPIER Claudine 13991 D65 7203PL 1:25:17 2369 2494 +125 2418
54 LUDEWIG-JAMES Carol 15894 D75 5907HF 1:34:16 1552 2257 +705 1824
55 DIEUDONNE Roland 1381 H70 7808IF 1:35:56 2524 2218 -306 2576
56 LAUNEY Noella 11368 D75 7203PL 1:40:23 1905 2119 +214 2142
57 LEFOUEST Joseph 1000 H80 2904BR 1:41:50 1967 2089 +122 2372
58 RUAUD Agnes 739 D65 2508BF 1:42:50 2624 2069 -555 2593
59 PIGER Ghislaine 117 D75 4504CE 1:44:40 2293 2033 -260 2250
60 DEVIENNE Virginie 30570 D40 5906HF 1:57:01 1983 1818 -165 2156
61 GUICHARDON Georges 570 H80 4504CE 2:09:49 1542 1639 +97 1634
62 BELDOWSKI Andrew 18509 H80 2208BR 2:10:57 1265 1625 +360 1392
63 ALLANCON Claudine 14632 D65 2906BR 2:13:48 1498 1590 +92 1652
64 LEPRETRE Karine 25172 D40 4504CE 2:27:07 1446 991
ROBERT Martine 1087 D65 7004BF pm 3475 0 3513